Karnack, Texas
Current Conditions -  °F | °C
As of 3:35 AM on Friday 28 Nov 2014 (Local Time) from KASL Reporting Station
Clear Clear  
Wind Chill: 38°   Ceiling: Unl
Heat Index: 38°   Visibility: 10mi
Dew Point: 35°   Wind: 0mph
Humidity: 90%   Direction: NA
Pressure: 30.4"   Gusts: NA
Location:  32.67°N, 94.17°W
Report Text: KASL 280935Z AUTO 00000KT 10SM CLR 03/02 A3040 RMK AO1 T00310016
Loading
Personal Weather Stations






























Interactive Weather Map New forecast layout! Learn more

10-Day Weather Forecast

Advertisements
Track Severe Weather on mobile